createdAt,value
2023-03-11T00:01:18.339Z,17.30
2023-03-11T00:03:45.401Z,13.20
2023-03-11T00:06:14.646Z,14.60
2023-03-11T00:08:44.169Z,12.30
2023-03-11T00:11:12.278Z,13.70
2023-03-11T00:13:45.267Z,11.30
2023-03-11T00:16:13.256Z,12.60
2023-03-11T00:18:51.932Z,12.20
2023-03-11T00:21:19.846Z,17.60
2023-03-11T00:23:48.350Z,11.10
2023-03-11T00:26:16.500Z,12.60
2023-03-11T00:28:48.053Z,12.60
2023-03-11T00:31:26.332Z,11.20
2023-03-11T00:34:18.270Z,10.80
2023-03-11T00:36:48.931Z,11.30
2023-03-11T00:39:17.376Z,12.00
2023-03-11T00:41:46.433Z,12.50
2023-03-11T00:44:17.157Z,11.00
2023-03-11T00:46:45.606Z,13.20
2023-03-11T00:49:16.677Z,11.20
2023-03-11T00:51:44.564Z,10.20
2023-03-11T00:54:16.916Z,11.20
2023-03-11T00:56:46.783Z,13.80
2023-03-11T00:59:18.767Z,11.60
2023-03-11T01:01:47.409Z,11.40
2023-03-11T01:04:15.597Z,8.90
2023-03-11T01:06:45.784Z,12.00
2023-03-11T01:09:14.669Z,11.60
2023-03-11T01:11:44.821Z,10.20
2023-03-11T01:14:12.423Z,12.30
2023-03-11T01:16:40.305Z,14.40
2023-03-11T01:19:12.027Z,11.40
2023-03-11T01:21:43.363Z,12.30
2023-03-11T01:24:13.142Z,14.50
2023-03-11T01:26:42.118Z,12.60
2023-03-11T01:29:09.841Z,13.90
2023-03-11T01:31:38.018Z,13.40
2023-03-11T01:34:05.460Z,12.20
2023-03-11T01:36:35.656Z,13.50
2023-03-11T01:39:07.342Z,12.20
2023-03-11T01:41:35.907Z,11.50
2023-03-11T01:44:05.891Z,12.00
2023-03-11T01:46:54.493Z,11.00
2023-03-11T01:52:03.265Z,12.00
2023-03-11T01:54:37.063Z,11.10
2023-03-11T01:57:06.359Z,10.60
2023-03-11T01:59:40.791Z,11.20
2023-03-11T02:02:25.514Z,11.10
2023-03-11T02:04:55.436Z,10.70
2023-03-11T02:07:25.485Z,10.30
2023-03-11T02:10:01.662Z,12.00
2023-03-11T02:12:32.351Z,14.10
2023-03-11T02:15:01.202Z,9.40
2023-03-11T02:17:36.101Z,12.60
2023-03-11T02:20:25.608Z,11.50
2023-03-11T02:22:56.813Z,10.70
2023-03-11T02:25:34.275Z,10.70
2023-03-11T02:28:09.504Z,9.30
2023-03-11T02:30:42.715Z,14.80
2023-03-11T02:33:10.822Z,14.20
2023-03-11T02:35:40.206Z,12.70
2023-03-11T02:38:09.632Z,11.80
2023-03-11T02:40:45.366Z,13.40
2023-03-11T02:43:14.268Z,14.00
2023-03-11T02:45:45.602Z,11.10
2023-03-11T02:48:14.080Z,14.40
2023-03-11T02:50:44.196Z,12.40
2023-03-11T02:53:13.527Z,11.30
2023-03-11T02:55:41.213Z,16.50
2023-03-11T02:58:11.331Z,14.80
2023-03-11T03:00:39.467Z,13.00
2023-03-11T03:03:10.350Z,10.80
2023-03-11T03:05:38.173Z,14.30
2023-03-11T03:08:08.142Z,9.80
2023-03-11T03:10:35.635Z,11.30
2023-03-11T03:13:08.310Z,12.70
2023-03-11T03:15:39.026Z,12.50
2023-03-11T03:18:08.787Z,16.10
2023-03-11T03:20:39.502Z,14.10
2023-03-11T03:23:09.317Z,14.00
2023-03-11T03:25:37.465Z,14.00
2023-03-11T03:28:07.114Z,12.10
2023-03-11T03:30:39.567Z,17.70
2023-03-11T03:33:07.003Z,13.60
2023-03-11T03:35:43.706Z,13.70
2023-03-11T03:38:22.911Z,14.10
2023-03-11T03:40:52.482Z,14.50
2023-03-11T03:43:21.006Z,16.30
2023-03-11T03:46:01.373Z,15.00
2023-03-11T03:48:31.936Z,14.70
2023-03-11T03:51:04.377Z,17.70
2023-03-11T03:57:00.221Z,13.00
2023-03-11T03:59:31.162Z,13.70
2023-03-11T04:02:03.202Z,15.30
2023-03-11T04:07:10.431Z,14.50
2023-03-11T04:09:45.575Z,18.70
2023-03-11T04:12:14.598Z,15.90
2023-03-11T04:14:44.802Z,16.00
2023-03-11T04:17:38.159Z,15.30
2023-03-11T04:20:08.001Z,18.20
2023-03-11T04:22:40.079Z,20.20
2023-03-11T04:27:51.816Z,17.60
2023-03-11T04:30:24.457Z,17.80
2023-03-11T04:33:01.064Z,18.20
2023-03-11T04:35:30.734Z,22.40
2023-03-11T04:38:00.796Z,20.30
2023-03-11T04:40:32.009Z,19.70
2023-03-11T04:43:08.162Z,20.30
2023-03-11T04:45:38.425Z,18.00
2023-03-11T04:48:09.238Z,19.50
2023-03-11T04:50:36.880Z,15.40
2023-03-11T04:53:08.197Z,16.90
2023-03-11T04:58:10.396Z,18.80
2023-03-11T05:00:46.749Z,17.40
2023-03-11T05:03:18.618Z,16.60
2023-03-11T05:05:48.420Z,20.10
2023-03-11T05:08:20.544Z,15.70
2023-03-11T05:10:52.309Z,17.40
2023-03-11T05:13:30.543Z,18.70
2023-03-11T05:16:06.719Z,16.80
2023-03-11T05:18:35.062Z,17.50
2023-03-11T05:21:15.037Z,14.80
2023-03-11T05:23:49.375Z,16.30
2023-03-11T05:26:24.640Z,14.40
2023-03-11T05:28:59.491Z,13.40
2023-03-11T05:31:28.665Z,15.80
2023-03-11T05:34:01.927Z,19.70
2023-03-11T05:36:34.415Z,19.50
2023-03-11T05:39:05.403Z,18.20
2023-03-11T05:41:46.573Z,20.60
2023-03-11T05:44:17.688Z,16.90
2023-03-11T05:46:48.107Z,16.80
2023-03-11T05:49:16.872Z,20.10
2023-03-11T05:51:52.288Z,22.60
2023-03-11T05:54:20.664Z,21.00
2023-03-11T05:56:52.925Z,20.00
2023-03-11T05:59:23.862Z,23.90
2023-03-11T06:01:59.092Z,21.30
2023-03-11T06:04:31.296Z,25.40
2023-03-11T06:07:01.001Z,25.70
2023-03-11T06:09:39.290Z,30.00
2023-03-11T06:12:15.397Z,23.80
2023-03-11T06:15:07.588Z,25.90
2023-03-11T06:17:38.694Z,22.30
2023-03-11T06:20:09.340Z,25.60
2023-03-11T06:22:45.520Z,24.30
2023-03-11T06:25:15.838Z,22.20
2023-03-11T06:27:48.325Z,21.80
2023-03-11T06:30:20.679Z,15.70
2023-03-11T06:33:17.433Z,25.00
2023-03-11T06:36:00.616Z,21.20
2023-03-11T06:38:32.262Z,21.90
2023-03-11T06:41:07.689Z,25.10
2023-03-11T06:43:44.645Z,21.80
2023-03-11T06:46:22.247Z,24.80
2023-03-11T06:48:59.142Z,35.40
2023-03-11T06:51:36.111Z,29.40
2023-03-11T06:54:10.985Z,23.30
2023-03-11T06:56:43.840Z,24.20
2023-03-11T06:59:15.145Z,24.70
2023-03-11T07:01:47.857Z,20.00
2023-03-11T07:04:16.888Z,25.20
2023-03-11T07:06:47.871Z,20.20
2023-03-11T07:09:27.295Z,20.70
2023-03-11T07:11:55.869Z,20.30
2023-03-11T07:14:36.032Z,22.00
2023-03-11T07:17:10.369Z,21.00
2023-03-11T07:19:49.409Z,22.30
2023-03-11T07:22:25.320Z,19.00
2023-03-11T07:24:58.370Z,19.40
2023-03-11T07:27:27.528Z,19.70
2023-03-11T07:30:01.962Z,20.10
2023-03-11T07:32:34.854Z,22.20
2023-03-11T07:35:08.236Z,20.50
2023-03-11T07:37:39.736Z,26.10
2023-03-11T07:40:13.345Z,21.00
2023-03-11T07:42:40.780Z,22.60
2023-03-11T07:45:14.040Z,26.60
2023-03-11T07:47:49.648Z,24.90
2023-03-11T07:50:18.764Z,20.30
2023-03-11T16:14:43.933Z,30.00
2023-03-11T16:17:19.403Z,44.70
2023-03-11T16:20:21.509Z,36.20
2023-03-11T16:22:54.839Z,31.50
2023-03-11T16:25:38.511Z,23.00
2023-03-11T16:28:15.257Z,17.90
2023-03-11T16:30:49.596Z,15.40
2023-03-11T16:33:25.279Z,15.10
2023-03-11T16:36:02.623Z,18.00
2023-03-11T16:38:43.561Z,15.10
2023-03-11T16:41:43.417Z,15.40
2023-03-11T16:45:04.187Z,14.90
2023-03-11T16:48:00.513Z,18.30
2023-03-11T16:50:42.438Z,33.10
2023-03-11T16:53:23.706Z,22.60
2023-03-11T16:55:59.898Z,17.00
2023-03-11T16:58:28.260Z,15.10
2023-03-11T17:01:00.997Z,17.30
2023-03-11T17:03:42.780Z,16.30
2023-03-11T17:06:14.379Z,17.40
2023-03-11T17:08:53.154Z,24.10
2023-03-11T17:11:30.240Z,19.80
2023-03-11T17:14:13.628Z,15.70
2023-03-11T17:16:51.362Z,21.40
2023-03-11T17:19:24.215Z,23.50
2023-03-11T17:21:52.896Z,17.20
2023-03-11T17:24:27.736Z,19.30
2023-03-11T17:26:59.571Z,18.00
2023-03-11T17:29:32.321Z,17.40
2023-03-11T17:32:05.584Z,18.50
2023-03-11T17:34:36.684Z,19.00
2023-03-11T17:37:11.861Z,15.90
2023-03-11T17:39:45.629Z,16.90
2023-03-11T17:42:17.084Z,18.40
2023-03-11T17:44:52.078Z,17.40
2023-03-11T17:47:25.431Z,20.40
2023-03-11T17:49:57.596Z,15.60
2023-03-11T17:52:31.085Z,16.90
2023-03-11T17:55:02.813Z,18.50
2023-03-11T17:57:45.565Z,13.70
2023-03-11T18:00:19.479Z,17.20
2023-03-11T18:02:57.986Z,13.10
2023-03-11T18:05:29.202Z,14.40
2023-03-11T18:08:01.994Z,14.60
2023-03-11T18:13:00.782Z,13.00
2023-03-11T18:15:31.635Z,16.30
2023-03-11T18:18:05.325Z,16.10
2023-03-11T18:20:39.482Z,12.90
2023-03-11T18:23:11.309Z,16.70
2023-03-11T18:25:42.846Z,14.30
2023-03-11T18:28:12.564Z,18.60
2023-03-11T18:30:44.594Z,22.00
2023-03-11T18:33:17.120Z,29.00
2023-03-11T18:35:49.246Z,35.40
2023-03-11T18:38:26.045Z,54.40
2023-03-11T18:41:03.404Z,69.80
2023-03-11T18:43:31.244Z,97.10
2023-03-11T18:46:03.198Z,98.50
2023-03-11T18:48:33.506Z,95.20
2023-03-11T18:51:07.029Z,90.90
2023-03-11T18:53:37.155Z,92.70
2023-03-11T18:56:16.191Z,86.60
2023-03-11T18:58:47.316Z,80.20
2023-03-11T19:01:44.161Z,83.60
2023-03-11T19:04:12.874Z,95.20
2023-03-11T19:07:04.623Z,83.40
2023-03-11T19:09:47.414Z,70.90
2023-03-11T19:12:20.347Z,71.00
2023-03-11T19:14:56.652Z,50.00
2023-03-11T19:17:26.692Z,72.10
2023-03-11T19:19:59.052Z,50.20
2023-03-11T19:22:35.933Z,46.10
2023-03-11T19:25:05.996Z,68.80
2023-03-11T19:27:40.359Z,88.90
2023-03-11T19:30:09.564Z,100.60
2023-03-11T19:32:38.815Z,57.90
2023-03-11T19:35:13.748Z,34.30
2023-03-11T19:38:13.164Z,19.30
2023-03-11T19:40:46.564Z,13.80
2023-03-11T19:43:17.937Z,13.60
2023-03-11T19:49:00.454Z,11.00
2023-03-11T19:51:50.021Z,11.30
2023-03-11T19:54:26.430Z,11.70
2023-03-11T19:57:21.246Z,13.50
2023-03-11T20:00:00.826Z,13.50
